PMDY

Henderson Field Airport

Midway Atoll, , Midway Islands
PMDY 201130Z 2012/2112 06015KT P6SM VCSH SCT022 BKN045
Issued Valid From Valid To
Jul-20 @ 11:30 UTC
(3 hours ago)
Jul-20 @ 12:00 UTC
(2 hours ago)
Jul-21 @ 12:00 UTC
(in 22 hours)
Jul-20 @ 12:00 to Jul-21 @ 12:00
PMDY 201130Z 2012/2112 06015KT P6SM VCSH SCT022 BKN045
Wind Visibility Clouds
60° at 15 knots 10,000+ meters
  • Scattered at 2,200' AGL
  • Broken at 4,500' AGL
PMDY 201130Z 2012/2112 06015KT P6SM VCSH SCT022 BKN045
Issued Jul-20 @ 11:30 UTC
(3 hours ago)
Valid From Jul-20 @ 12:00 UTC
(2 hours ago)
Valid To Jul-21 @ 12:00 UTC
(in 22 hours)
Jul-20 @ 12:00 - Jul-21 @ 12:00
Wind Visibility
60° at 15 knots 10,000+ meters
Clouds
  • Scattered at 2,200' AGL
  • Broken at 4,500' AGL